createdAt,value
2023-12-24T00:00:15.107Z,3.32
2023-12-24T00:02:41.956Z,3.39
2023-12-24T00:05:08.767Z,3.58
2023-12-24T00:07:35.514Z,3.83
2023-12-24T00:10:02.317Z,3.57
2023-12-24T00:12:28.910Z,3.55
2023-12-24T00:14:55.463Z,3.42
2023-12-24T00:17:22.187Z,3.30
2023-12-24T00:19:48.783Z,3.38
2023-12-24T00:22:15.435Z,3.35
2023-12-24T00:24:41.980Z,3.54
2023-12-24T00:27:08.615Z,3.52
2023-12-24T00:29:35.562Z,3.80
2023-12-24T00:32:02.144Z,3.22
2023-12-24T00:34:28.790Z,3.19
2023-12-24T00:36:55.387Z,3.32
2023-12-24T00:39:21.934Z,3.15
2023-12-24T00:41:48.505Z,3.12
2023-12-24T00:44:15.114Z,3.07
2023-12-24T00:46:41.680Z,2.83
2023-12-24T00:49:08.304Z,3.11
2023-12-24T00:51:34.956Z,3.07
2023-12-24T00:54:01.514Z,3.48
2023-12-24T00:56:28.099Z,3.25
2023-12-24T00:58:55.154Z,3.21
2023-12-24T01:01:22.407Z,2.85
2023-12-24T01:03:48.868Z,3.13
2023-12-24T01:06:15.504Z,3.16
2023-12-24T01:08:42.165Z,3.30
2023-12-24T01:11:08.578Z,3.83
2023-12-24T01:13:34.987Z,3.73
2023-12-24T01:16:01.492Z,4.10
2023-12-24T01:18:28.785Z,4.49
2023-12-24T01:20:55.327Z,5.13
2023-12-24T01:23:21.736Z,4.77
2023-12-24T01:25:48.242Z,3.69
2023-12-24T01:28:14.965Z,4.40
2023-12-24T01:30:41.969Z,3.74
2023-12-24T01:33:08.642Z,3.99
2023-12-24T01:35:35.224Z,3.55
2023-12-24T01:38:01.670Z,3.63
2023-12-24T01:40:28.168Z,3.48
2023-12-24T01:42:54.817Z,3.73
2023-12-24T01:45:21.605Z,4.23
2023-12-24T01:47:52.519Z,3.98
2023-12-24T01:50:21.197Z,3.89
2023-12-24T01:52:47.949Z,3.73
2023-12-24T01:55:14.702Z,3.26
2023-12-24T01:57:41.508Z,3.22
2023-12-24T02:00:08.712Z,3.38
2023-12-24T02:02:36.224Z,3.55
2023-12-24T02:05:03.351Z,3.73
2023-12-24T02:07:31.012Z,3.39
2023-12-24T02:09:59.180Z,3.36
2023-12-24T02:12:25.922Z,3.64
2023-12-24T02:14:52.648Z,3.87
2023-12-24T02:17:20.309Z,3.39
2023-12-24T02:19:47.129Z,3.48
2023-12-24T02:22:13.682Z,3.54
2023-12-24T02:24:40.481Z,3.55
2023-12-24T02:27:35.576Z,4.06
2023-12-24T02:30:11.862Z,4.21
2023-12-24T02:32:41.111Z,3.76
2023-12-24T02:35:09.097Z,3.54
2023-12-24T02:37:35.821Z,3.95
2023-12-24T02:40:02.333Z,3.68
2023-12-24T02:42:28.826Z,3.52
2023-12-24T02:44:55.362Z,3.35
2023-12-24T02:47:22.112Z,3.50
2023-12-24T02:49:48.708Z,3.79
2023-12-24T02:52:16.464Z,3.63
2023-12-24T02:54:42.971Z,3.53
2023-12-24T02:57:09.521Z,3.41
2023-12-24T02:59:36.147Z,3.39
2023-12-24T03:02:02.809Z,3.27
2023-12-24T03:04:29.480Z,3.30
2023-12-24T03:06:56.004Z,3.45
2023-12-24T03:09:22.599Z,3.70
2023-12-24T03:11:49.225Z,3.50
2023-12-24T03:14:15.832Z,3.36
2023-12-24T03:16:42.435Z,3.17
2023-12-24T03:19:09.036Z,3.09
2023-12-24T03:21:35.706Z,2.94
2023-12-24T03:24:02.252Z,2.96
2023-12-24T03:26:28.819Z,2.93
2023-12-24T03:28:55.337Z,2.87
2023-12-24T03:31:21.944Z,3.00
2023-12-24T03:33:48.545Z,2.82
2023-12-24T03:36:15.293Z,2.77
2023-12-24T03:38:42.168Z,2.82
2023-12-24T03:41:08.783Z,2.84
2023-12-24T03:43:35.455Z,2.98
2023-12-24T03:46:02.021Z,2.83
2023-12-24T03:48:28.659Z,2.68
2023-12-24T03:50:55.633Z,2.68
2023-12-24T03:53:22.249Z,2.49
2023-12-24T03:55:48.834Z,2.58
2023-12-24T03:58:15.393Z,2.56
2023-12-24T04:00:41.980Z,2.68
2023-12-24T04:03:08.813Z,2.77
2023-12-24T04:05:35.460Z,2.51
2023-12-24T04:08:02.273Z,2.78
2023-12-24T04:10:28.794Z,2.60
2023-12-24T04:12:55.626Z,2.73
2023-12-24T04:15:22.790Z,2.48
2023-12-24T04:17:49.556Z,2.38
2023-12-24T04:20:16.386Z,2.58
2023-12-24T04:22:42.933Z,2.42
2023-12-24T04:25:09.516Z,2.64
2023-12-24T04:27:36.023Z,2.48
2023-12-24T04:30:02.705Z,2.58
2023-12-24T04:32:29.439Z,2.47
2023-12-24T04:34:56.074Z,2.39
2023-12-24T04:37:22.647Z,2.68
2023-12-24T04:39:49.338Z,2.82
2023-12-24T04:42:15.920Z,2.69
2023-12-24T04:44:42.469Z,2.70
2023-12-24T04:47:09.224Z,2.80
2023-12-24T04:49:36.088Z,2.77
2023-12-24T04:52:02.713Z,2.67
2023-12-24T04:54:29.325Z,2.67
2023-12-24T04:56:56.121Z,2.79
2023-12-24T04:59:22.776Z,3.05
2023-12-24T05:01:50.322Z,2.85
2023-12-24T05:04:17.227Z,2.87
2023-12-24T05:06:43.804Z,2.70
2023-12-24T05:09:10.419Z,2.92
2023-12-24T05:11:39.552Z,3.07
2023-12-24T05:14:06.254Z,2.79
2023-12-24T05:16:32.827Z,3.00
2023-12-24T05:18:59.529Z,2.91
2023-12-24T05:21:26.190Z,3.04
2023-12-24T05:23:52.811Z,3.01
2023-12-24T05:26:19.372Z,2.95
2023-12-24T05:28:46.054Z,3.02
2023-12-24T05:31:12.651Z,3.08
2023-12-24T05:33:39.200Z,2.85
2023-12-24T05:36:05.900Z,3.12
2023-12-24T05:38:32.497Z,2.90
2023-12-24T05:40:59.052Z,3.02
2023-12-24T05:43:25.651Z,3.07
2023-12-24T05:45:52.167Z,3.13
2023-12-24T05:48:18.673Z,3.30
2023-12-24T05:50:45.299Z,3.01
2023-12-24T05:53:11.856Z,2.92
2023-12-24T05:55:38.372Z,3.17
2023-12-24T05:58:04.863Z,3.22
2023-12-24T06:00:32.924Z,3.02
2023-12-24T06:03:00.838Z,2.91
2023-12-24T06:05:27.430Z,2.76
2023-12-24T06:07:53.940Z,2.81
2023-12-24T06:10:20.434Z,2.63
2023-12-24T06:12:46.932Z,2.80
2023-12-24T06:15:13.399Z,2.78
2023-12-24T06:17:40.241Z,2.66
2023-12-24T06:20:08.050Z,2.92
2023-12-24T06:22:34.736Z,2.87
2023-12-24T06:25:01.445Z,2.54
2023-12-24T06:27:27.998Z,2.51
2023-12-24T06:29:54.509Z,2.47
2023-12-24T06:32:21.044Z,2.55
2023-12-24T06:34:47.629Z,2.78
2023-12-24T06:37:14.169Z,2.67
2023-12-24T06:39:40.716Z,2.73
2023-12-24T06:42:07.319Z,2.60
2023-12-24T06:44:34.122Z,2.77
2023-12-24T06:47:00.777Z,2.86
2023-12-24T06:49:27.284Z,2.79
2023-12-24T06:51:53.921Z,2.68
2023-12-24T06:54:20.517Z,2.43
2023-12-24T06:56:47.066Z,2.37
2023-12-24T06:59:13.652Z,2.21
2023-12-24T07:01:40.308Z,2.35
2023-12-24T07:04:06.851Z,2.33
2023-12-24T07:06:33.377Z,2.41
2023-12-24T07:09:00.164Z,2.51
2023-12-24T07:11:26.697Z,2.45
2023-12-24T07:13:53.242Z,2.57
2023-12-24T07:16:19.775Z,2.65
2023-12-24T07:18:46.324Z,2.64
2023-12-24T07:21:12.986Z,2.53
2023-12-24T07:23:39.561Z,2.54
2023-12-24T07:26:07.271Z,2.61
2023-12-24T07:28:33.902Z,2.58
2023-12-24T07:31:00.422Z,2.64
2023-12-24T07:33:27.187Z,2.30
2023-12-24T07:35:53.860Z,2.46
2023-12-24T07:38:20.372Z,1.88
2023-12-24T07:40:46.850Z,1.93
2023-12-24T07:43:13.346Z,2.33
2023-12-24T07:45:41.301Z,2.33
2023-12-24T07:48:08.668Z,2.46
2023-12-24T07:50:35.283Z,2.61
2023-12-24T07:53:01.909Z,2.52
2023-12-24T07:55:28.539Z,2.79
2023-12-24T07:57:55.085Z,2.63
2023-12-24T08:00:21.916Z,2.58
2023-12-24T08:02:48.560Z,2.39
2023-12-24T08:05:15.236Z,2.46
2023-12-24T08:07:41.808Z,2.56
2023-12-24T08:10:09.073Z,2.24
2023-12-24T08:12:35.610Z,2.19
2023-12-24T08:15:02.110Z,2.24
2023-12-24T08:17:28.720Z,2.43
2023-12-24T08:19:56.694Z,2.22
2023-12-24T08:22:23.771Z,2.13
2023-12-24T08:24:50.111Z,2.23
2023-12-24T08:27:16.875Z,2.50
2023-12-24T08:29:43.403Z,2.19
2023-12-24T08:32:09.800Z,2.27
2023-12-24T08:34:36.339Z,2.22
2023-12-24T08:37:02.719Z,2.55
2023-12-24T08:39:29.085Z,2.48
2023-12-24T08:41:55.483Z,2.33
2023-12-24T08:44:21.890Z,2.37
2023-12-24T08:46:48.311Z,2.04
2023-12-24T08:49:16.024Z,2.17
2023-12-24T08:51:43.387Z,2.01
2023-12-24T08:54:09.805Z,1.91
2023-12-24T08:56:36.809Z,1.99
2023-12-24T08:59:04.570Z,1.93
2023-12-24T09:01:30.965Z,1.51
2023-12-24T09:03:57.363Z,1.66
2023-12-24T09:06:23.867Z,1.87
2023-12-24T09:08:50.357Z,2.06
2023-12-24T09:11:16.997Z,2.45
2023-12-24T09:13:43.534Z,3.13
2023-12-24T09:16:10.053Z,1.90
2023-12-24T09:18:36.757Z,1.90
2023-12-24T09:21:03.535Z,1.85
2023-12-24T09:23:30.200Z,1.60
2023-12-24T09:25:57.021Z,1.48
2023-12-24T09:28:23.715Z,2.42
2023-12-24T09:30:50.329Z,1.73
2023-12-24T09:33:17.106Z,1.73
2023-12-24T09:35:44.757Z,1.62
2023-12-24T09:38:12.319Z,2.02
2023-12-24T09:40:38.949Z,1.82
2023-12-24T09:43:06.984Z,1.76
2023-12-24T09:45:34.312Z,2.33
2023-12-24T09:48:00.956Z,1.84
2023-12-24T09:50:27.606Z,2.23
2023-12-24T09:52:54.759Z,2.07
2023-12-24T09:55:21.535Z,1.70
2023-12-24T09:57:47.892Z,1.95
2023-12-24T10:00:17.558Z,2.00
2023-12-24T10:02:45.644Z,3.26
2023-12-24T10:05:12.186Z,5.13
2023-12-24T10:07:39.913Z,5.90
2023-12-24T10:10:08.597Z,6.31
2023-12-24T10:12:34.956Z,4.90
2023-12-24T10:15:02.092Z,4.12
2023-12-24T10:17:33.350Z,2.71
2023-12-24T10:20:02.994Z,2.30
2023-12-24T10:22:29.560Z,2.43
2023-12-24T10:25:07.066Z,1.84
2023-12-24T10:27:34.518Z,1.76
2023-12-24T10:30:15.496Z,1.73
2023-12-24T10:32:45.619Z,1.84
2023-12-24T10:35:12.710Z,1.49
2023-12-24T10:37:39.327Z,1.62
2023-12-24T10:40:12.373Z,1.37
2023-12-24T10:42:40.255Z,1.37
2023-12-24T10:45:08.589Z,1.46
2023-12-24T10:47:36.624Z,1.69
2023-12-24T10:50:03.793Z,1.41
2023-12-24T10:52:30.362Z,1.90
2023-12-24T10:54:59.490Z,1.74
2023-12-24T10:57:37.950Z,1.90
2023-12-24T11:00:12.726Z,1.72
2023-12-24T11:02:45.256Z,1.49
2023-12-24T11:05:12.398Z,1.75
2023-12-24T11:07:38.955Z,1.80
2023-12-24T11:10:06.478Z,1.68
2023-12-24T11:12:34.629Z,1.85
2023-12-24T11:15:03.295Z,1.98
2023-12-24T11:17:35.989Z,1.96
2023-12-24T11:20:18.061Z,2.18
2023-12-24T11:23:16.944Z,2.03
2023-12-24T11:25:44.742Z,2.08
2023-12-24T11:28:26.112Z,2.00
2023-12-24T11:30:52.768Z,1.93
2023-12-24T11:33:34.790Z,1.91
2023-12-24T11:36:03.135Z,1.81
2023-12-24T11:38:35.917Z,1.99
2023-12-24T11:41:05.298Z,2.13
2023-12-24T11:43:32.386Z,2.07
2023-12-24T11:45:58.985Z,2.09
2023-12-24T11:48:30.238Z,2.09
2023-12-24T11:51:04.342Z,2.12
2023-12-24T11:53:32.183Z,1.90
2023-12-24T11:56:08.882Z,2.01
2023-12-24T11:58:36.267Z,1.99
2023-12-24T12:01:03.098Z,1.81
2023-12-24T12:03:34.603Z,1.82
2023-12-24T12:06:02.518Z,2.03
2023-12-24T12:08:29.288Z,2.06
2023-12-24T12:10:56.380Z,1.58
2023-12-24T12:13:23.231Z,1.73
2023-12-24T12:15:50.031Z,1.83
2023-12-24T12:18:17.249Z,1.72
2023-12-24T12:20:45.258Z,1.96
2023-12-24T12:23:12.675Z,1.96
2023-12-24T12:25:39.269Z,1.71
2023-12-24T12:28:05.929Z,2.23
2023-12-24T12:30:32.479Z,2.34
2023-12-24T12:32:59.439Z,1.45
2023-12-24T12:35:26.354Z,1.58
2023-12-24T12:37:52.966Z,2.07
2023-12-24T12:40:19.493Z,2.49
2023-12-24T12:42:46.100Z,2.26
2023-12-24T12:45:13.345Z,1.87
2023-12-24T12:47:40.363Z,1.66
2023-12-24T12:50:08.214Z,1.42
2023-12-24T12:52:35.399Z,1.82
2023-12-24T12:55:07.801Z,1.57
2023-12-24T12:57:36.294Z,1.72
2023-12-24T13:00:09.644Z,1.89
2023-12-24T13:02:42.280Z,1.68
2023-12-24T13:05:32.579Z,1.63
2023-12-24T13:08:14.385Z,1.78
2023-12-24T13:10:41.410Z,1.96
2023-12-24T13:13:12.139Z,2.27
2023-12-24T13:15:40.915Z,2.30
2023-12-24T13:18:27.651Z,1.98
2023-12-24T13:20:55.212Z,2.16
2023-12-24T13:23:23.726Z,2.36
2023-12-24T13:25:51.035Z,1.80
2023-12-24T13:28:18.728Z,1.85
2023-12-24T13:30:46.370Z,1.88
2023-12-24T13:33:13.378Z,1.86
2023-12-24T13:35:41.494Z,1.81
2023-12-24T13:38:08.980Z,1.82
2023-12-24T13:40:36.898Z,1.82
2023-12-24T13:43:06.038Z,2.07
2023-12-24T13:45:33.062Z,2.86
2023-12-24T13:48:00.984Z,3.57
2023-12-24T13:50:27.816Z,3.96
2023-12-24T13:52:54.531Z,3.44
2023-12-24T13:55:23.137Z,3.10
2023-12-24T13:57:50.555Z,2.17
2023-12-24T14:00:18.176Z,2.30
2023-12-24T14:02:44.710Z,2.25
2023-12-24T14:05:12.450Z,2.32
2023-12-24T14:07:41.914Z,2.33
2023-12-24T14:10:08.480Z,2.74
2023-12-24T14:12:34.989Z,4.00
2023-12-24T14:15:02.101Z,4.08
2023-12-24T14:17:28.657Z,3.45
2023-12-24T14:19:55.212Z,2.41
2023-12-24T14:22:21.777Z,2.25
2023-12-24T14:24:48.333Z,2.18
2023-12-24T14:27:14.894Z,2.25
2023-12-24T14:29:41.436Z,2.25
2023-12-24T14:32:07.833Z,7.23
2023-12-24T14:34:34.371Z,33.63
2023-12-24T14:37:00.833Z,25.34
2023-12-24T14:39:27.238Z,5.13
2023-12-24T14:41:53.597Z,2.84
2023-12-24T14:44:19.959Z,3.11
2023-12-24T14:46:46.436Z,3.07
2023-12-24T14:49:12.865Z,2.71
2023-12-24T14:51:39.428Z,2.64
2023-12-24T14:54:06.598Z,2.18
2023-12-24T14:56:33.746Z,2.19
2023-12-24T14:59:02.999Z,2.26
2023-12-24T15:01:29.358Z,2.16
2023-12-24T15:03:55.847Z,2.30
2023-12-24T15:06:22.417Z,2.30
2023-12-24T15:08:48.948Z,3.02
2023-12-24T15:11:15.395Z,3.43
2023-12-24T15:13:42.072Z,3.36
2023-12-24T15:16:08.482Z,3.59
2023-12-24T15:18:35.064Z,3.32
2023-12-24T15:21:04.441Z,2.95
2023-12-24T15:23:31.367Z,3.17
2023-12-24T15:25:57.728Z,2.87
2023-12-24T15:28:24.069Z,2.87
2023-12-24T15:30:50.672Z,2.90
2023-12-24T15:33:17.347Z,2.73
2023-12-24T15:35:44.064Z,2.61
2023-12-24T15:38:10.675Z,2.75
2023-12-24T15:40:37.196Z,2.86
2023-12-24T15:43:03.994Z,2.95
2023-12-24T15:45:31.051Z,2.78
2023-12-24T15:47:58.441Z,2.91
2023-12-24T15:50:25.047Z,3.21
2023-12-24T15:52:51.732Z,2.90
2023-12-24T15:55:18.601Z,2.84
2023-12-24T15:57:45.132Z,3.07
2023-12-24T16:00:12.260Z,6.71
2023-12-24T16:02:38.858Z,7.95
2023-12-24T16:05:08.507Z,3.12
2023-12-24T16:07:35.040Z,2.61
2023-12-24T16:10:01.660Z,2.62
2023-12-24T16:12:28.207Z,2.69
2023-12-24T16:14:55.565Z,2.61
2023-12-24T16:17:22.515Z,2.74
2023-12-24T16:19:49.072Z,2.98
2023-12-24T16:22:15.777Z,2.91
2023-12-24T16:24:42.643Z,2.80
2023-12-24T16:27:09.258Z,2.76
2023-12-24T16:29:36.068Z,2.86
2023-12-24T16:32:03.124Z,3.08
2023-12-24T16:34:29.761Z,3.59
2023-12-24T16:36:56.275Z,3.54
2023-12-24T16:39:22.837Z,3.48
2023-12-24T16:41:49.900Z,3.42
2023-12-24T16:44:16.628Z,3.26
2023-12-24T16:46:43.293Z,3.47
2023-12-24T16:49:09.935Z,3.20
2023-12-24T16:51:37.111Z,3.09
2023-12-24T16:54:03.963Z,3.22
2023-12-24T16:56:30.560Z,4.03
2023-12-24T16:58:57.092Z,3.92
2023-12-24T17:01:23.623Z,4.56
2023-12-24T17:03:50.273Z,5.36
2023-12-24T17:06:16.866Z,5.16
2023-12-24T17:08:44.210Z,5.30
2023-12-24T17:11:10.890Z,4.86
2023-12-24T17:13:37.414Z,4.05
2023-12-24T17:16:04.161Z,3.85
2023-12-24T17:18:31.111Z,3.60
2023-12-24T17:20:57.974Z,3.34
2023-12-24T17:23:24.822Z,3.44
2023-12-24T17:25:51.389Z,4.40
2023-12-24T17:28:17.959Z,7.17
2023-12-24T17:30:44.706Z,3.54
2023-12-24T17:33:11.420Z,3.01
2023-12-24T17:35:38.068Z,2.98
2023-12-24T17:38:04.635Z,2.86
2023-12-24T17:40:31.216Z,3.52
2023-12-24T17:42:57.736Z,3.93
2023-12-24T17:45:24.266Z,4.03
2023-12-24T17:47:50.829Z,4.18
2023-12-24T17:50:17.506Z,4.61
2023-12-24T17:52:44.032Z,4.62
2023-12-24T17:55:10.573Z,4.36
2023-12-24T17:57:37.112Z,4.56
2023-12-24T18:00:03.976Z,4.66
2023-12-24T18:02:30.547Z,4.96
2023-12-24T18:04:57.276Z,5.80
2023-12-24T18:07:23.772Z,5.40
2023-12-24T18:09:50.474Z,4.95
2023-12-24T18:12:17.050Z,4.25
2023-12-24T18:14:45.622Z,4.35
2023-12-24T18:17:12.400Z,4.26
2023-12-24T18:19:39.002Z,3.65
2023-12-24T18:22:05.561Z,3.34
2023-12-24T18:24:32.249Z,3.24
2023-12-24T18:26:58.945Z,3.16
2023-12-24T18:29:25.810Z,3.69
2023-12-24T18:31:52.226Z,3.59
2023-12-24T18:34:18.682Z,4.05
2023-12-24T18:36:45.151Z,3.59
2023-12-24T18:39:11.576Z,3.16
2023-12-24T18:41:38.007Z,3.19
2023-12-24T18:44:04.641Z,3.26
2023-12-24T18:46:31.041Z,2.97
2023-12-24T18:48:57.676Z,3.09
2023-12-24T18:51:24.165Z,3.44
2023-12-24T18:53:50.994Z,4.45
2023-12-24T18:56:25.863Z,3.63
2023-12-24T18:58:52.950Z,3.72
2023-12-24T19:01:19.343Z,3.40
2023-12-24T19:03:45.748Z,3.58
2023-12-24T19:06:26.150Z,3.45
2023-12-24T19:08:53.579Z,3.23
2023-12-24T19:11:20.713Z,3.59
2023-12-24T19:13:47.613Z,3.55
2023-12-24T19:16:14.822Z,3.84
2023-12-24T19:18:43.342Z,3.91
2023-12-24T19:21:10.604Z,3.76
2023-12-24T19:23:37.141Z,3.76
2023-12-24T19:26:03.733Z,3.61
2023-12-24T19:28:30.191Z,4.12
2023-12-24T19:30:56.802Z,3.76
2023-12-24T19:33:23.613Z,3.72
2023-12-24T19:35:50.123Z,4.11
2023-12-24T19:38:16.605Z,4.50
2023-12-24T19:40:43.162Z,4.15
2023-12-24T19:43:09.576Z,3.70
2023-12-24T19:45:36.049Z,3.59
2023-12-24T19:48:02.676Z,3.49
2023-12-24T19:50:29.185Z,3.96
2023-12-24T19:52:55.729Z,3.80
2023-12-24T19:55:22.200Z,4.04
2023-12-24T19:57:48.683Z,4.24
2023-12-24T20:00:15.335Z,4.80
2023-12-24T20:02:41.735Z,3.98
2023-12-24T20:05:08.576Z,3.70
2023-12-24T20:07:35.092Z,3.96
2023-12-24T20:10:01.901Z,3.73
2023-12-24T20:12:28.443Z,3.83
2023-12-24T20:14:55.174Z,4.40
2023-12-24T20:17:21.940Z,4.41
2023-12-24T20:19:48.432Z,4.64
2023-12-24T20:22:14.811Z,4.26
2023-12-24T20:24:41.207Z,4.57
2023-12-24T20:27:07.613Z,5.05
2023-12-24T20:29:34.046Z,4.85
2023-12-24T20:32:00.568Z,4.62
2023-12-24T20:34:27.089Z,4.92
2023-12-24T20:36:53.671Z,5.03
2023-12-24T20:39:20.253Z,4.87
2023-12-24T20:41:46.915Z,4.48
2023-12-24T20:44:16.914Z,4.01
2023-12-24T20:46:44.751Z,4.15
2023-12-24T20:49:11.587Z,4.27
2023-12-24T20:51:38.401Z,4.33
2023-12-24T20:54:05.028Z,3.93
2023-12-24T20:56:31.598Z,4.47
2023-12-24T20:58:58.397Z,4.57
2023-12-24T21:01:25.070Z,5.09
2023-12-24T21:03:51.881Z,5.08
2023-12-24T21:06:18.716Z,4.85
2023-12-24T21:08:45.614Z,4.80
2023-12-24T21:11:12.230Z,4.69
2023-12-24T21:13:38.943Z,5.02
2023-12-24T21:16:06.003Z,5.67
2023-12-24T21:18:32.702Z,6.43
2023-12-24T21:20:59.274Z,6.37
2023-12-24T21:23:26.517Z,5.83
2023-12-24T21:25:53.137Z,5.83
2023-12-24T21:28:20.093Z,5.96
2023-12-24T21:30:46.667Z,5.58
2023-12-24T21:33:13.567Z,6.27
2023-12-24T21:35:40.185Z,6.78
2023-12-24T21:38:06.738Z,6.78
2023-12-24T21:40:33.320Z,6.22
2023-12-24T21:42:59.843Z,5.48
2023-12-24T21:45:26.377Z,5.75
2023-12-24T21:47:53.377Z,6.34
2023-12-24T21:50:20.258Z,7.03
2023-12-24T21:52:46.792Z,6.82
2023-12-24T21:55:13.400Z,6.64
2023-12-24T21:57:39.971Z,6.16
2023-12-24T22:00:07.494Z,6.07
2023-12-24T22:02:34.106Z,5.88
2023-12-24T22:05:00.739Z,6.70
2023-12-24T22:07:27.374Z,7.01
2023-12-24T22:09:53.895Z,6.25
2023-12-24T22:12:20.474Z,6.10
2023-12-24T22:14:47.064Z,6.74
2023-12-24T22:17:13.701Z,6.42
2023-12-24T22:19:40.360Z,6.27
2023-12-24T22:22:07.222Z,6.13
2023-12-24T22:24:33.781Z,5.63
2023-12-24T22:27:00.322Z,5.64
2023-12-24T22:29:26.781Z,5.36
2023-12-24T22:31:53.178Z,5.40
2023-12-24T22:34:19.791Z,5.60
2023-12-24T22:36:46.271Z,5.24
2023-12-24T22:39:12.710Z,5.61
2023-12-24T22:41:39.171Z,5.61
2023-12-24T22:44:05.675Z,6.04
2023-12-24T22:46:32.059Z,5.86
2023-12-24T22:48:58.587Z,6.23
2023-12-24T22:51:25.081Z,6.04
2023-12-24T22:53:51.626Z,6.04
2023-12-24T22:56:18.129Z,6.49
2023-12-24T22:58:44.573Z,7.29
2023-12-24T23:01:11.166Z,7.22
2023-12-24T23:03:38.857Z,6.50
2023-12-24T23:06:13.281Z,5.95
2023-12-24T23:08:40.997Z,6.80
2023-12-24T23:11:07.734Z,7.04
2023-12-24T23:13:34.231Z,7.31
2023-12-24T23:16:00.636Z,6.03
2023-12-24T23:18:27.195Z,5.55
2023-12-24T23:20:53.838Z,5.53
2023-12-24T23:23:20.424Z,5.59
2023-12-24T23:25:46.973Z,5.46
2023-12-24T23:28:14.553Z,5.67
2023-12-24T23:30:41.155Z,5.80
2023-12-24T23:33:07.860Z,5.28
2023-12-24T23:35:34.496Z,5.06
2023-12-24T23:38:01.067Z,5.14
2023-12-24T23:40:27.648Z,5.44
2023-12-24T23:42:54.237Z,5.14
2023-12-24T23:45:20.767Z,5.49
2023-12-24T23:47:47.872Z,5.22
2023-12-24T23:50:14.889Z,5.46
2023-12-24T23:52:41.790Z,5.35
2023-12-24T23:55:08.668Z,5.09
2023-12-24T23:57:35.222Z,5.20
